sensor_id;sensor_type;location;lat;lon;timestamp;temperature;humidity
25668;DHT22;18003;-33.830;151.202;2022-08-11T00:00:42;12.10;99.90
25668;DHT22;18003;-33.830;151.202;2022-08-11T00:03:13;12.20;99.90
25668;DHT22;18003;-33.830;151.202;2022-08-11T00:05:51;12.20;99.90
25668;DHT22;18003;-33.830;151.202;2022-08-11T00:08:24;12.10;99.90
25668;DHT22;18003;-33.830;151.202;2022-08-11T00:11:00;12.10;99.90
25668;DHT22;18003;-33.830;151.202;2022-08-11T00:13:35;12.10;99.90
25668;DHT22;18003;-33.830;151.202;2022-08-11T00:16:10;11.90;99.90
25668;DHT22;18003;-33.830;151.202;2022-08-11T00:18:40;12.00;99.90
25668;DHT22;18003;-33.830;151.202;2022-08-11T00:21:11;12.00;99.90
25668;DHT22;18003;-33.830;151.202;2022-08-11T00:23:43;12.10;99.90
25668;DHT22;18003;-33.830;151.202;2022-08-11T00:26:14;12.10;99.90
25668;DHT22;18003;-33.830;151.202;2022-08-11T00:28:44;12.00;99.90
25668;DHT22;18003;-33.830;151.202;2022-08-11T00:31:30;12.10;99.90
25668;DHT22;18003;-33.830;151.202;2022-08-11T00:34:01;12.00;99.90
25668;DHT22;18003;-33.830;151.202;2022-08-11T00:36:51;12.10;99.90
25668;DHT22;18003;-33.830;151.202;2022-08-11T00:39:23;12.00;99.90
25668;DHT22;18003;-33.830;151.202;2022-08-11T00:42:09;12.00;99.90
25668;DHT22;18003;-33.830;151.202;2022-08-11T00:45:26;12.00;99.90
25668;DHT22;18003;-33.830;151.202;2022-08-11T01:01:46;12.00;99.90
25668;DHT22;18003;-33.830;151.202;2022-08-11T01:04:19;12.00;99.90
25668;DHT22;18003;-33.830;151.202;2022-08-11T01:06:51;12.00;99.90
25668;DHT22;18003;-33.830;151.202;2022-08-11T01:15:29;12.10;99.90
25668;DHT22;18003;-33.830;151.202;2022-08-11T01:30:06;12.20;99.90
25668;DHT22;18003;-33.830;151.202;2022-08-11T01:44:50;12.40;99.90
25668;DHT22;18003;-33.830;151.202;2022-08-11T01:47:33;12.40;99.90
25668;DHT22;18003;-33.830;151.202;2022-08-11T01:53:15;12.50;99.90
25668;DHT22;18003;-33.830;151.202;2022-08-11T01:56:01;12.50;99.90
25668;DHT22;18003;-33.830;151.202;2022-08-11T01:58:47;12.60;99.90
25668;DHT22;18003;-33.830;151.202;2022-08-11T02:04:17;12.40;99.90
25668;DHT22;18003;-33.830;151.202;2022-08-11T02:07:07;12.40;99.90
25668;DHT22;18003;-33.830;151.202;2022-08-11T02:09:46;12.40;99.90
25668;DHT22;18003;-33.830;151.202;2022-08-11T02:12:52;12.40;99.90
25668;DHT22;18003;-33.830;151.202;2022-08-11T02:15:23;12.40;99.90
25668;DHT22;18003;-33.830;151.202;2022-08-11T02:23:28;12.40;99.90
25668;DHT22;18003;-33.830;151.202;2022-08-11T02:26:27;12.50;99.90
25668;DHT22;18003;-33.830;151.202;2022-08-11T02:29:24;12.50;99.90
25668;DHT22;18003;-33.830;151.202;2022-08-11T02:41:11;12.70;99.90
25668;DHT22;18003;-33.830;151.202;2022-08-11T02:47:01;12.60;99.90
25668;DHT22;18003;-33.830;151.202;2022-08-11T02:49:47;12.50;99.90
25668;DHT22;18003;-33.830;151.202;2022-08-11T02:52:54;12.40;99.90
25668;DHT22;18003;-33.830;151.202;2022-08-11T02:55:30;12.40;99.90
25668;DHT22;18003;-33.830;151.202;2022-08-11T02:58:10;12.50;99.90
25668;DHT22;18003;-33.830;151.202;2022-08-11T03:00:52;12.50;99.90
25668;DHT22;18003;-33.830;151.202;2022-08-11T03:03:25;12.50;99.90
25668;DHT22;18003;-33.830;151.202;2022-08-11T03:06:07;12.50;99.90
25668;DHT22;18003;-33.830;151.202;2022-08-11T03:20:29;12.60;99.90
25668;DHT22;18003;-33.830;151.202;2022-08-11T03:34:00;12.70;99.90
25668;DHT22;18003;-33.830;151.202;2022-08-11T03:42:40;12.70;99.90
25668;DHT22;18003;-33.830;151.202;2022-08-11T03:50:53;12.60;99.90
25668;DHT22;18003;-33.830;151.202;2022-08-11T03:56:37;12.70;99.90
25668;DHT22;18003;-33.830;151.202;2022-08-11T04:01:36;12.80;99.90
25668;DHT22;18003;-33.830;151.202;2022-08-11T04:10:13;12.90;99.90
25668;DHT22;18003;-33.830;151.202;2022-08-11T04:18:48;12.90;99.90
25668;DHT22;18003;-33.830;151.202;2022-08-11T04:41:19;12.70;99.90
25668;DHT22;18003;-33.830;151.202;2022-08-11T04:49:52;12.70;99.90
25668;DHT22;18003;-33.830;151.202;2022-08-11T04:59:10;12.90;99.90
25668;DHT22;18003;-33.830;151.202;2022-08-11T05:17:07;12.70;99.90
25668;DHT22;18003;-33.830;151.202;2022-08-11T05:19:51;12.70;99.90
25668;DHT22;18003;-33.830;151.202;2022-08-11T05:22:46;12.60;99.90
25668;DHT22;18003;-33.830;151.202;2022-08-11T05:25:32;12.80;99.90
25668;DHT22;18003;-33.830;151.202;2022-08-11T05:28:33;13.20;99.90
25668;DHT22;18003;-33.830;151.202;2022-08-11T05:34:26;13.40;99.90
25668;DHT22;18003;-33.830;151.202;2022-08-11T05:37:13;13.60;99.90
25668;DHT22;18003;-33.830;151.202;2022-08-11T05:39:49;13.60;99.90
25668;DHT22;18003;-33.830;151.202;2022-08-11T05:42:34;13.60;99.90
25668;DHT22;18003;-33.830;151.202;2022-08-11T05:45:22;13.60;99.90
25668;DHT22;18003;-33.830;151.202;2022-08-11T05:48:09;13.70;99.90
25668;DHT22;18003;-33.830;151.202;2022-08-11T05:50:58;13.70;99.90
25668;DHT22;18003;-33.830;151.202;2022-08-11T05:53:52;13.70;99.90
25668;DHT22;18003;-33.830;151.202;2022-08-11T05:56:40;13.70;99.90
25668;DHT22;18003;-33.830;151.202;2022-08-11T05:59:11;13.80;99.90
25668;DHT22;18003;-33.830;151.202;2022-08-11T06:01:36;13.80;99.90
25668;DHT22;18003;-33.830;151.202;2022-08-11T06:04:07;13.80;99.90
25668;DHT22;18003;-33.830;151.202;2022-08-11T06:06:55;13.80;99.90
25668;DHT22;18003;-33.830;151.202;2022-08-11T06:11:59;13.90;99.90
25668;DHT22;18003;-33.830;151.202;2022-08-11T06:14:27;13.90;99.90
25668;DHT22;18003;-33.830;151.202;2022-08-11T06:16:58;13.80;99.90
25668;DHT22;18003;-33.830;151.202;2022-08-11T06:19:31;13.90;99.90
25668;DHT22;18003;-33.830;151.202;2022-08-11T06:22:02;13.90;99.90
25668;DHT22;18003;-33.830;151.202;2022-08-11T06:24:35;13.90;99.90
25668;DHT22;18003;-33.830;151.202;2022-08-11T06:27:07;13.90;99.90
25668;DHT22;18003;-33.830;151.202;2022-08-11T06:29:44;13.90;99.90
25668;DHT22;18003;-33.830;151.202;2022-08-11T06:32:11;13.90;99.90
25668;DHT22;18003;-33.830;151.202;2022-08-11T06:43:18;13.90;99.90
25668;DHT22;18003;-33.830;151.202;2022-08-11T06:46:07;13.80;99.90
25668;DHT22;18003;-33.830;151.202;2022-08-11T06:48:33;13.60;99.90
25668;DHT22;18003;-33.830;151.202;2022-08-11T06:51:03;13.50;99.90
25668;DHT22;18003;-33.830;151.202;2022-08-11T06:53:44;13.40;99.90
25668;DHT22;18003;-33.830;151.202;2022-08-11T06:56:15;13.50;99.90
25668;DHT22;18003;-33.830;151.202;2022-08-11T06:59:03;13.40;99.90
25668;DHT22;18003;-33.830;151.202;2022-08-11T07:04:51;13.30;99.90
25668;DHT22;18003;-33.830;151.202;2022-08-11T07:13:11;13.00;99.90
25668;DHT22;18003;-33.830;151.202;2022-08-11T07:15:59;12.90;99.90
25668;DHT22;18003;-33.830;151.202;2022-08-11T07:18:33;12.90;99.90
25668;DHT22;18003;-33.830;151.202;2022-08-11T07:21:31;12.90;99.90
25668;DHT22;18003;-33.830;151.202;2022-08-11T07:24:22;12.80;99.90
25668;DHT22;18003;-33.830;151.202;2022-08-11T07:27:17;12.80;99.90
25668;DHT22;18003;-33.830;151.202;2022-08-11T07:29:58;12.70;99.90
25668;DHT22;18003;-33.830;151.202;2022-08-11T07:32:30;12.60;99.90
25668;DHT22;18003;-33.830;151.202;2022-08-11T07:35:08;12.70;99.90
25668;DHT22;18003;-33.830;151.202;2022-08-11T07:37:34;12.70;99.90
25668;DHT22;18003;-33.830;151.202;2022-08-11T07:40:11;12.80;99.90
25668;DHT22;18003;-33.830;151.202;2022-08-11T07:42:35;12.70;99.90
25668;DHT22;18003;-33.830;151.202;2022-08-11T07:45:06;12.70;99.90
25668;DHT22;18003;-33.830;151.202;2022-08-11T07:47:54;12.90;99.90
25668;DHT22;18003;-33.830;151.202;2022-08-11T07:50:42;12.90;99.90
25668;DHT22;18003;-33.830;151.202;2022-08-11T07:53:31;12.90;99.90
25668;DHT22;18003;-33.830;151.202;2022-08-11T07:56:02;12.90;99.90
25668;DHT22;18003;-33.830;151.202;2022-08-11T07:58:36;12.70;99.90
25668;DHT22;18003;-33.830;151.202;2022-08-11T08:01:25;12.70;99.90
25668;DHT22;18003;-33.830;151.202;2022-08-11T08:04:15;12.60;99.90
25668;DHT22;18003;-33.830;151.202;2022-08-11T08:07:03;12.60;99.90
25668;DHT22;18003;-33.830;151.202;2022-08-11T08:09:51;12.60;99.90
25668;DHT22;18003;-33.830;151.202;2022-08-11T08:12:40;12.70;99.90
25668;DHT22;18003;-33.830;151.202;2022-08-11T08:15:28;12.70;99.90
25668;DHT22;18003;-33.830;151.202;2022-08-11T08:18:15;12.70;99.90
25668;DHT22;18003;-33.830;151.202;2022-08-11T08:20:47;12.70;99.90
25668;DHT22;18003;-33.830;151.202;2022-08-11T08:23:19;12.70;99.90
25668;DHT22;18003;-33.830;151.202;2022-08-11T08:25:53;12.90;99.90
25668;DHT22;18003;-33.830;151.202;2022-08-11T08:28:25;13.10;99.90
25668;DHT22;18003;-33.830;151.202;2022-08-11T08:30:56;13.30;99.90
25668;DHT22;18003;-33.830;151.202;2022-08-11T08:33:28;13.40;99.90
25668;DHT22;18003;-33.830;151.202;2022-08-11T08:35:57;13.50;99.90
25668;DHT22;18003;-33.830;151.202;2022-08-11T08:38:50;13.50;99.90
25668;DHT22;18003;-33.830;151.202;2022-08-11T08:41:31;13.60;99.90
25668;DHT22;18003;-33.830;151.202;2022-08-11T08:44:00;13.60;99.90
25668;DHT22;18003;-33.830;151.202;2022-08-11T08:46:35;13.60;99.90
25668;DHT22;18003;-33.830;151.202;2022-08-11T08:49:06;13.60;99.90
25668;DHT22;18003;-33.830;151.202;2022-08-11T08:51:38;13.60;99.90
25668;DHT22;18003;-33.830;151.202;2022-08-11T08:54:19;13.70;99.90
25668;DHT22;18003;-33.830;151.202;2022-08-11T08:56:46;13.70;99.90
25668;DHT22;18003;-33.830;151.202;2022-08-11T08:59:15;13.70;99.90
25668;DHT22;18003;-33.830;151.202;2022-08-11T09:01:57;13.70;99.90
25668;DHT22;18003;-33.830;151.202;2022-08-11T09:04:26;13.70;99.90
25668;DHT22;18003;-33.830;151.202;2022-08-11T09:06:58;13.70;99.90
25668;DHT22;18003;-33.830;151.202;2022-08-11T09:09:30;13.80;99.90
25668;DHT22;18003;-33.830;151.202;2022-08-11T09:12:01;13.70;99.90
25668;DHT22;18003;-33.830;151.202;2022-08-11T09:14:37;13.70;99.90
25668;DHT22;18003;-33.830;151.202;2022-08-11T09:17:24;13.70;99.90
25668;DHT22;18003;-33.830;151.202;2022-08-11T09:19:57;13.80;99.90
25668;DHT22;18003;-33.830;151.202;2022-08-11T09:22:28;13.80;99.90
25668;DHT22;18003;-33.830;151.202;2022-08-11T09:25:16;13.80;99.90
25668;DHT22;18003;-33.830;151.202;2022-08-11T09:28:04;13.80;99.90
25668;DHT22;18003;-33.830;151.202;2022-08-11T09:30:34;13.80;99.90
25668;DHT22;18003;-33.830;151.202;2022-08-11T09:33:05;13.80;99.90
25668;DHT22;18003;-33.830;151.202;2022-08-11T09:35:36;13.80;99.90
25668;DHT22;18003;-33.830;151.202;2022-08-11T09:38:06;13.80;99.90
25668;DHT22;18003;-33.830;151.202;2022-08-11T09:40:54;13.80;99.90
25668;DHT22;18003;-33.830;151.202;2022-08-11T09:43:25;13.80;99.90
25668;DHT22;18003;-33.830;151.202;2022-08-11T09:46:13;13.80;99.90
25668;DHT22;18003;-33.830;151.202;2022-08-11T09:48:45;13.80;99.90
25668;DHT22;18003;-33.830;151.202;2022-08-11T09:51:15;13.80;99.90
25668;DHT22;18003;-33.830;151.202;2022-08-11T09:53:45;13.80;99.90
25668;DHT22;18003;-33.830;151.202;2022-08-11T09:56:17;13.80;99.90
25668;DHT22;18003;-33.830;151.202;2022-08-11T09:59:04;13.80;99.90
25668;DHT22;18003;-33.830;151.202;2022-08-11T10:01:45;13.80;99.90
25668;DHT22;18003;-33.830;151.202;2022-08-11T10:04:17;13.80;99.90
25668;DHT22;18003;-33.830;151.202;2022-08-11T10:06:48;13.80;99.90
25668;DHT22;18003;-33.830;151.202;2022-08-11T10:09:49;13.60;99.90
25668;DHT22;18003;-33.830;151.202;2022-08-11T10:12:26;13.50;99.90
25668;DHT22;18003;-33.830;151.202;2022-08-11T10:14:59;13.40;99.90
25668;DHT22;18003;-33.830;151.202;2022-08-11T10:17:52;13.40;99.90
25668;DHT22;18003;-33.830;151.202;2022-08-11T10:20:35;13.40;99.90
25668;DHT22;18003;-33.830;151.202;2022-08-11T10:23:07;13.30;99.90
25668;DHT22;18003;-33.830;151.202;2022-08-11T10:25:54;13.30;99.90
25668;DHT22;18003;-33.830;151.202;2022-08-11T10:28:42;13.20;99.90
25668;DHT22;18003;-33.830;151.202;2022-08-11T10:31:14;13.00;99.90
25668;DHT22;18003;-33.830;151.202;2022-08-11T10:34:02;13.00;99.90
25668;DHT22;18003;-33.830;151.202;2022-08-11T10:36:37;12.90;99.90
25668;DHT22;18003;-33.830;151.202;2022-08-11T10:39:12;12.80;99.90
25668;DHT22;18003;-33.830;151.202;2022-08-11T10:41:47;12.70;99.90
25668;DHT22;18003;-33.830;151.202;2022-08-11T10:44:36;12.80;99.90
25668;DHT22;18003;-33.830;151.202;2022-08-11T10:47:05;12.70;99.90
25668;DHT22;18003;-33.830;151.202;2022-08-11T10:49:53;12.70;99.90
25668;DHT22;18003;-33.830;151.202;2022-08-11T10:52:42;12.70;99.90
25668;DHT22;18003;-33.830;151.202;2022-08-11T10:55:30;12.70;99.90
25668;DHT22;18003;-33.830;151.202;2022-08-11T10:58:18;12.70;99.90
25668;DHT22;18003;-33.830;151.202;2022-08-11T11:01:05;12.70;99.90
25668;DHT22;18003;-33.830;151.202;2022-08-11T11:03:36;12.70;99.90
25668;DHT22;18003;-33.830;151.202;2022-08-11T11:09:07;12.80;99.90
25668;DHT22;18003;-33.830;151.202;2022-08-11T11:11:47;12.90;99.90
25668;DHT22;18003;-33.830;151.202;2022-08-11T11:14:30;12.80;99.90
25668;DHT22;18003;-33.830;151.202;2022-08-11T11:17:28;12.90;99.90
25668;DHT22;18003;-33.830;151.202;2022-08-11T11:20:18;12.80;99.90
25668;DHT22;18003;-33.830;151.202;2022-08-11T11:22:50;12.70;99.90
25668;DHT22;18003;-33.830;151.202;2022-08-11T11:25:24;12.70;99.90
25668;DHT22;18003;-33.830;151.202;2022-08-11T11:30:27;12.60;99.90
25668;DHT22;18003;-33.830;151.202;2022-08-11T11:35:47;12.60;99.90
25668;DHT22;18003;-33.830;151.202;2022-08-11T11:38:15;12.60;99.90
25668;DHT22;18003;-33.830;151.202;2022-08-11T11:40:46;12.60;99.90
25668;DHT22;18003;-33.830;151.202;2022-08-11T11:43:18;12.60;99.90
25668;DHT22;18003;-33.830;151.202;2022-08-11T11:45:48;12.60;99.90
25668;DHT22;18003;-33.830;151.202;2022-08-11T11:48:18;12.60;99.90
25668;DHT22;18003;-33.830;151.202;2022-08-11T11:50:49;12.60;99.90
25668;DHT22;18003;-33.830;151.202;2022-08-11T11:53:19;12.70;99.90
25668;DHT22;18003;-33.830;151.202;2022-08-11T11:55:49;12.70;99.90
25668;DHT22;18003;-33.830;151.202;2022-08-11T11:58:20;12.70;99.90
25668;DHT22;18003;-33.830;151.202;2022-08-11T12:01:08;12.70;99.90
25668;DHT22;18003;-33.830;151.202;2022-08-11T12:03:46;12.70;99.90
25668;DHT22;18003;-33.830;151.202;2022-08-11T12:06:18;12.70;99.90
25668;DHT22;18003;-33.830;151.202;2022-08-11T12:08:49;12.60;99.90
25668;DHT22;18003;-33.830;151.202;2022-08-11T12:11:21;12.80;99.90
25668;DHT22;18003;-33.830;151.202;2022-08-11T12:14:09;13.10;99.90
25668;DHT22;18003;-33.830;151.202;2022-08-11T12:16:43;13.20;99.90
25668;DHT22;18003;-33.830;151.202;2022-08-11T12:19:16;13.30;99.90
25668;DHT22;18003;-33.830;151.202;2022-08-11T12:21:46;13.30;99.90
25668;DHT22;18003;-33.830;151.202;2022-08-11T12:24:34;13.40;99.90
25668;DHT22;18003;-33.830;151.202;2022-08-11T12:27:22;13.40;99.90
25668;DHT22;18003;-33.830;151.202;2022-08-11T12:30:00;13.40;99.90
25668;DHT22;18003;-33.830;151.202;2022-08-11T12:32:24;13.40;99.90
25668;DHT22;18003;-33.830;151.202;2022-08-11T12:34:55;13.40;99.90
25668;DHT22;18003;-33.830;151.202;2022-08-11T12:37:35;13.50;99.90
25668;DHT22;18003;-33.830;151.202;2022-08-11T12:40:10;13.50;99.90
25668;DHT22;18003;-33.830;151.202;2022-08-11T12:42:59;13.50;99.90
25668;DHT22;18003;-33.830;151.202;2022-08-11T12:45:46;13.50;99.90
25668;DHT22;18003;-33.830;151.202;2022-08-11T12:48:18;13.60;99.90
25668;DHT22;18003;-33.830;151.202;2022-08-11T12:51:08;13.60;99.90
25668;DHT22;18003;-33.830;151.202;2022-08-11T12:53:59;13.60;99.90
25668;DHT22;18003;-33.830;151.202;2022-08-11T12:56:31;13.60;99.90
25668;DHT22;18003;-33.830;151.202;2022-08-11T12:59:18;13.60;99.90
25668;DHT22;18003;-33.830;151.202;2022-08-11T13:02:05;13.60;99.90
25668;DHT22;18003;-33.830;151.202;2022-08-11T13:04:53;13.60;99.90
25668;DHT22;18003;-33.830;151.202;2022-08-11T13:07:30;13.60;99.90
25668;DHT22;18003;-33.830;151.202;2022-08-11T13:10:04;13.60;99.90
25668;DHT22;18003;-33.830;151.202;2022-08-11T13:12:35;13.60;99.90
25668;DHT22;18003;-33.830;151.202;2022-08-11T13:15:19;13.60;99.90
25668;DHT22;18003;-33.830;151.202;2022-08-11T13:17:51;13.60;99.90
25668;DHT22;18003;-33.830;151.202;2022-08-11T13:20:23;13.70;99.90
25668;DHT22;18003;-33.830;151.202;2022-08-11T13:22:52;13.70;99.90
25668;DHT22;18003;-33.830;151.202;2022-08-11T13:25:24;13.70;99.90
25668;DHT22;18003;-33.830;151.202;2022-08-11T13:27:56;13.60;99.90
25668;DHT22;18003;-33.830;151.202;2022-08-11T13:30:32;13.70;99.90
25668;DHT22;18003;-33.830;151.202;2022-08-11T13:33:15;13.70;99.90
25668;DHT22;18003;-33.830;151.202;2022-08-11T13:35:47;13.70;99.90
25668;DHT22;18003;-33.830;151.202;2022-08-11T13:38:19;13.70;99.90
25668;DHT22;18003;-33.830;151.202;2022-08-11T13:40:56;13.70;99.90
25668;DHT22;18003;-33.830;151.202;2022-08-11T13:43:23;13.70;99.90
25668;DHT22;18003;-33.830;151.202;2022-08-11T13:45:54;13.70;99.90
25668;DHT22;18003;-33.830;151.202;2022-08-11T13:48:25;13.70;99.90
25668;DHT22;18003;-33.830;151.202;2022-08-11T13:50:56;13.70;99.90
25668;DHT22;18003;-33.830;151.202;2022-08-11T13:53:44;13.70;99.90
25668;DHT22;18003;-33.830;151.202;2022-08-11T13:56:14;13.70;99.90
25668;DHT22;18003;-33.830;151.202;2022-08-11T13:58:44;13.70;99.90
25668;DHT22;18003;-33.830;151.202;2022-08-11T14:01:14;13.70;99.90
25668;DHT22;18003;-33.830;151.202;2022-08-11T14:03:46;13.70;99.90
25668;DHT22;18003;-33.830;151.202;2022-08-11T14:06:16;13.70;99.90
25668;DHT22;18003;-33.830;151.202;2022-08-11T14:08:46;13.70;99.90
25668;DHT22;18003;-33.830;151.202;2022-08-11T14:11:19;13.70;99.90
25668;DHT22;18003;-33.830;151.202;2022-08-11T14:14:07;13.70;99.90
25668;DHT22;18003;-33.830;151.202;2022-08-11T14:16:38;13.70;99.90
25668;DHT22;18003;-33.830;151.202;2022-08-11T14:19:08;13.70;99.90
25668;DHT22;18003;-33.830;151.202;2022-08-11T14:21:39;13.80;99.90
25668;DHT22;18003;-33.830;151.202;2022-08-11T14:24:26;13.70;99.90
25668;DHT22;18003;-33.830;151.202;2022-08-11T14:26:57;13.80;99.90
25668;DHT22;18003;-33.830;151.202;2022-08-11T14:29:27;13.80;99.90
25668;DHT22;18003;-33.830;151.202;2022-08-11T14:32:01;13.80;99.90
25668;DHT22;18003;-33.830;151.202;2022-08-11T14:34:31;13.80;99.90
25668;DHT22;18003;-33.830;151.202;2022-08-11T14:37:13;13.80;99.90
25668;DHT22;18003;-33.830;151.202;2022-08-11T14:39:52;13.80;99.90
25668;DHT22;18003;-33.830;151.202;2022-08-11T14:42:23;13.80;99.90
25668;DHT22;18003;-33.830;151.202;2022-08-11T14:45:12;13.80;99.90
25668;DHT22;18003;-33.830;151.202;2022-08-11T14:48:04;13.80;99.90
25668;DHT22;18003;-33.830;151.202;2022-08-11T14:50:34;13.80;99.90
25668;DHT22;18003;-33.830;151.202;2022-08-11T14:53:06;13.80;99.90
25668;DHT22;18003;-33.830;151.202;2022-08-11T14:55:36;13.80;99.90
25668;DHT22;18003;-33.830;151.202;2022-08-11T14:58:25;13.80;99.90
25668;DHT22;18003;-33.830;151.202;2022-08-11T15:00:54;13.80;99.90
25668;DHT22;18003;-33.830;151.202;2022-08-11T15:03:25;13.90;99.90
25668;DHT22;18003;-33.830;151.202;2022-08-11T15:05:57;13.90;99.90
25668;DHT22;18003;-33.830;151.202;2022-08-11T15:08:30;13.90;99.90
25668;DHT22;18003;-33.830;151.202;2022-08-11T15:11:18;13.90;99.90
25668;DHT22;18003;-33.830;151.202;2022-08-11T15:14:07;13.90;99.90
25668;DHT22;18003;-33.830;151.202;2022-08-11T15:16:42;13.90;99.90
25668;DHT22;18003;-33.830;151.202;2022-08-11T15:19:30;13.90;99.90
25668;DHT22;18003;-33.830;151.202;2022-08-11T15:22:01;13.90;99.90
25668;DHT22;18003;-33.830;151.202;2022-08-11T15:24:48;13.90;99.90
25668;DHT22;18003;-33.830;151.202;2022-08-11T15:27:19;13.90;99.90
25668;DHT22;18003;-33.830;151.202;2022-08-11T15:30:07;13.90;99.90
25668;DHT22;18003;-33.830;151.202;2022-08-11T15:32:55;13.90;99.90
25668;DHT22;18003;-33.830;151.202;2022-08-11T15:35:43;13.90;99.90
25668;DHT22;18003;-33.830;151.202;2022-08-11T15:38:32;13.90;99.90
25668;DHT22;18003;-33.830;151.202;2022-08-11T15:41:04;13.90;99.90
25668;DHT22;18003;-33.830;151.202;2022-08-11T15:43:53;13.90;99.90
25668;DHT22;18003;-33.830;151.202;2022-08-11T15:46:51;13.90;99.90
25668;DHT22;18003;-33.830;151.202;2022-08-11T15:49:27;13.90;99.90
25668;DHT22;18003;-33.830;151.202;2022-08-11T15:52:02;13.90;99.90
25668;DHT22;18003;-33.830;151.202;2022-08-11T15:54:32;13.90;99.90
25668;DHT22;18003;-33.830;151.202;2022-08-11T15:57:01;13.90;99.90
25668;DHT22;18003;-33.830;151.202;2022-08-11T15:59:34;13.90;99.90
25668;DHT22;18003;-33.830;151.202;2022-08-11T16:02:23;13.90;99.90
25668;DHT22;18003;-33.830;151.202;2022-08-11T16:04:55;13.90;99.90
25668;DHT22;18003;-33.830;151.202;2022-08-11T16:07:31;13.90;99.90
25668;DHT22;18003;-33.830;151.202;2022-08-11T16:10:05;13.90;99.90
25668;DHT22;18003;-33.830;151.202;2022-08-11T16:12:43;13.90;99.90
25668;DHT22;18003;-33.830;151.202;2022-08-11T16:15:30;13.90;99.90
25668;DHT22;18003;-33.830;151.202;2022-08-11T16:18:19;13.90;99.90
25668;DHT22;18003;-33.830;151.202;2022-08-11T16:20:50;13.90;99.90
25668;DHT22;18003;-33.830;151.202;2022-08-11T16:23:22;13.90;99.90
25668;DHT22;18003;-33.830;151.202;2022-08-11T16:25:55;13.90;99.90
25668;DHT22;18003;-33.830;151.202;2022-08-11T16:28:27;13.90;99.90
25668;DHT22;18003;-33.830;151.202;2022-08-11T16:30:58;13.90;99.90
25668;DHT22;18003;-33.830;151.202;2022-08-11T16:33:29;13.90;99.90
25668;DHT22;18003;-33.830;151.202;2022-08-11T16:36:00;13.90;99.90
25668;DHT22;18003;-33.830;151.202;2022-08-11T16:38:48;13.90;99.90
25668;DHT22;18003;-33.830;151.202;2022-08-11T16:41:22;13.90;99.90
25668;DHT22;18003;-33.830;151.202;2022-08-11T16:44:09;13.90;99.90
25668;DHT22;18003;-33.830;151.202;2022-08-11T16:46:57;13.90;99.90
25668;DHT22;18003;-33.830;151.202;2022-08-11T16:49:33;13.90;99.90
25668;DHT22;18003;-33.830;151.202;2022-08-11T16:52:07;13.90;99.90
25668;DHT22;18003;-33.830;151.202;2022-08-11T16:54:39;13.90;99.90
25668;DHT22;18003;-33.830;151.202;2022-08-11T16:57:22;13.90;99.90
25668;DHT22;18003;-33.830;151.202;2022-08-11T17:00:09;13.90;99.90
25668;DHT22;18003;-33.830;151.202;2022-08-11T17:02:43;13.90;99.90
25668;DHT22;18003;-33.830;151.202;2022-08-11T17:05:31;13.90;99.90
25668;DHT22;18003;-33.830;151.202;2022-08-11T17:08:24;13.90;99.90
25668;DHT22;18003;-33.830;151.202;2022-08-11T17:11:10;13.90;99.90
25668;DHT22;18003;-33.830;151.202;2022-08-11T17:14:00;14.00;99.90
25668;DHT22;18003;-33.830;151.202;2022-08-11T17:16:33;13.90;99.90
25668;DHT22;18003;-33.830;151.202;2022-08-11T17:19:04;13.90;99.90
25668;DHT22;18003;-33.830;151.202;2022-08-11T17:21:49;14.00;99.90
25668;DHT22;18003;-33.830;151.202;2022-08-11T17:24:43;13.90;99.90
25668;DHT22;18003;-33.830;151.202;2022-08-11T17:27:09;14.00;99.90
25668;DHT22;18003;-33.830;151.202;2022-08-11T17:32:19;14.00;99.90
25668;DHT22;18003;-33.830;151.202;2022-08-11T17:35:13;14.00;99.90
25668;DHT22;18003;-33.830;151.202;2022-08-11T17:40:40;13.90;99.90
25668;DHT22;18003;-33.830;151.202;2022-08-11T17:43:12;13.90;99.90
25668;DHT22;18003;-33.830;151.202;2022-08-11T17:45:59;14.00;99.90
25668;DHT22;18003;-33.830;151.202;2022-08-11T17:48:39;14.00;99.90
25668;DHT22;18003;-33.830;151.202;2022-08-11T17:51:13;13.90;99.90
25668;DHT22;18003;-33.830;151.202;2022-08-11T17:53:47;14.00;99.90
25668;DHT22;18003;-33.830;151.202;2022-08-11T17:56:35;14.00;99.90
25668;DHT22;18003;-33.830;151.202;2022-08-11T17:59:23;13.90;99.90
25668;DHT22;18003;-33.830;151.202;2022-08-11T18:02:10;14.00;99.90
25668;DHT22;18003;-33.830;151.202;2022-08-11T18:04:59;13.90;99.90
25668;DHT22;18003;-33.830;151.202;2022-08-11T18:07:29;14.00;99.90
25668;DHT22;18003;-33.830;151.202;2022-08-11T18:10:17;13.90;99.90
25668;DHT22;18003;-33.830;151.202;2022-08-11T18:13:06;13.90;99.90
25668;DHT22;18003;-33.830;151.202;2022-08-11T18:15:53;14.00;99.90
25668;DHT22;18003;-33.830;151.202;2022-08-11T18:18:40;13.90;99.90
25668;DHT22;18003;-33.830;151.202;2022-08-11T18:21:28;14.00;99.90
25668;DHT22;18003;-33.830;151.202;2022-08-11T18:24:17;13.90;99.90
25668;DHT22;18003;-33.830;151.202;2022-08-11T18:27:06;13.90;99.90
25668;DHT22;18003;-33.830;151.202;2022-08-11T18:29:55;13.90;99.90
25668;DHT22;18003;-33.830;151.202;2022-08-11T18:32:43;13.90;99.90
25668;DHT22;18003;-33.830;151.202;2022-08-11T18:35:32;13.90;99.90
25668;DHT22;18003;-33.830;151.202;2022-08-11T18:38:21;13.90;99.90
25668;DHT22;18003;-33.830;151.202;2022-08-11T18:41:08;13.90;99.90
25668;DHT22;18003;-33.830;151.202;2022-08-11T18:43:59;13.90;99.90
25668;DHT22;18003;-33.830;151.202;2022-08-11T18:46:47;14.00;99.90
25668;DHT22;18003;-33.830;151.202;2022-08-11T18:49:37;13.90;99.90
25668;DHT22;18003;-33.830;151.202;2022-08-11T18:52:24;14.00;99.90
25668;DHT22;18003;-33.830;151.202;2022-08-11T18:55:14;13.90;99.90
25668;DHT22;18003;-33.830;151.202;2022-08-11T18:58:03;13.90;99.90
25668;DHT22;18003;-33.830;151.202;2022-08-11T19:00:52;13.90;99.90
25668;DHT22;18003;-33.830;151.202;2022-08-11T19:03:40;13.90;99.90
25668;DHT22;18003;-33.830;151.202;2022-08-11T19:06:29;13.90;99.90
25668;DHT22;18003;-33.830;151.202;2022-08-11T19:09:17;13.90;99.90
25668;DHT22;18003;-33.830;151.202;2022-08-11T19:12:07;13.90;99.90
25668;DHT22;18003;-33.830;151.202;2022-08-11T19:14:54;13.90;99.90
25668;DHT22;18003;-33.830;151.202;2022-08-11T19:17:43;13.90;99.90
25668;DHT22;18003;-33.830;151.202;2022-08-11T19:20:31;13.90;99.90
25668;DHT22;18003;-33.830;151.202;2022-08-11T19:23:34;13.90;99.90